Home > Products > Valid Products > MTR

000
SAUS44 KSHV 020457
MTRAQV
METAR KAQV 020456Z AUTO 01004KT 2 1/2SM BR OVC002 10/09 A3028 RMK
AO2 SLP253 T01000089 PNO $





000
SAUS44 KSHV 020456
MTRBKB
METAR KBKB 020454Z AUTO 00000KT 1 1/4SM BR OVC002 12/11 A3026 RMK
AO2 SLP277 T01220106 $





000
SAUS44 KSHV 020446
MTRAQV
SPECI KAQV 020445Z AUTO VRB03KT 2 1/2SM BR OVC002 10/09 A3028 RMK
AO2 T01000089 PNO $





000
SAUS44 KSHV 020437
MTRBKB
SPECI KBKB 020436Z AUTO VRB03KT 1 3/4SM BR OVC002 13/11 A3026 RMK
AO2 T01280106 $





000
SAUS44 KSHV 020436
MTRAQV
SPECI KAQV 020435Z AUTO 02004KT 3SM BR OVC002 10/09 A3028 RMK AO2
T01000094 PNO $





000
SAUS44 KSHV 020420
MTRBKB
SPECI KBKB 020418Z AUTO 01004KT 2SM BR OVC002 13/11 A3027 RMK AO2
T01280111 $





000
SAUS44 KSHV 020416
MTRAQV
SPECI KAQV 020415Z AUTO VRB06KT 2 1/2SM BR OVC002 10/09 A3028 RMK
AO2 T01000094 PNO $





000
SAUS44 KSHV 020416
MTRAQV
SPECI KAQV 020415Z AUTO VRB06KT 2 1/2SM BR OVC002 10/09 A3028 RMK
AO2 T01000094 PNO $





000
SAUS44 KSHV 020357
MTRAQV
METAR KAQV 020356Z AUTO 03003KT 1 1/2SM BR OVC002 11/09 A3028 RMK
AO2 SLP256 T01060094 PNO $





000
SAUS44 KSHV 020355
MTRBKB
METAR KBKB 020354Z AUTO 00000KT 1 3/4SM BR OVC002 13/11 A3026 RMK
AO2 SLP278 T01280111 $





000
SAUS44 KSHV 020308
MTRAQV
SPECI KAQV 020306Z AUTO 36005KT 1 1/2SM BR OVC002 11/10 A3027 RMK
AO2 T01060100 PNO $





000
SAUS44 KSHV 020308
MTRAQV
SPECI KAQV 020306Z AUTO 36005KT 1 1/2SM BR OVC002 11/10 A3027 RMK
AO2 T01060100 PNO $





000
SAUS44 KSHV 020308
MTRBKB
SPECI KBKB 020306Z AUTO 01003KT 1 3/4SM BR OVC002 13/12 A3026 RMK
AO2 T01330117 $





000
SAUS44 KSHV 020308
MTRBKB
SPECI KBKB 020306Z AUTO 01003KT 1 3/4SM BR OVC002 13/12 A3026 RMK
AO2 T01330117 $





000
SAUS44 KSHV 020258
MTRAQV
METAR KAQV 020256Z AUTO 36004KT 2 1/2SM BR OVC002 11/10 A3027 RMK
AO2 RAB21E33 SLP252 6//// T01060100 53015 PNO $





000
SAUS44 KSHV 020255
MTRBKB
METAR KBKB 020254Z AUTO VRB03KT 2SM BR OVC002 14/12 A3025 RMK AO2
SLP274 60002 T01390117 53018 $





000
SAUS44 KSHV 020243
MTRBKB
SPECI KBKB 020242Z AUTO 00000KT 2 1/2SM BR OVC002 14/12 A3025 RMK
AO2 T01390122 $





000
SAUS44 KSHV 020157
MTRAQV
METAR KAQV 020156Z AUTO 01006KT 5SM BR OVC002 11/10 A3025 RMK AO2
RAB18E52 SLP243 T01110100 PNO $





000
SAUS44 KSHV 020157
MTRAQV
METAR KAQV 020156Z AUTO 01006KT 5SM BR OVC002 11/10 A3025 RMK AO2
RAB18E52 SLP243 T01110100 PNO $





000
SAUS44 KSHV 020155
MTRBKB
METAR KBKB 020154Z AUTO VRB04KT 9SM OVC003 15/13 A3023 RMK AO2 RAE04
SLP265 P0000 T01500128 $





000
SAUS44 KSHV 020155
MTRAQV
SPECI KAQV 020154Z AUTO 01005KT 4SM BR OVC002 11/10 A3025 RMK AO2
RAB18E52 PNO $





000
SAUS44 KSHV 020155
MTRAQV
SPECI KAQV 020154Z AUTO 01005KT 4SM BR OVC002 11/10 A3025 RMK AO2
RAB18E52 PNO $





000
SAUS44 KSHV 020155
MTRBKB
METAR KBKB 020154Z AUTO VRB04KT 9SM OVC003 15/13 A3023 RMK AO2 RAE04
SLP265 P0000 T01500128 $





000
SAUS44 KSHV 020146
MTRAQV
SPECI KAQV 020145Z AUTO 36004KT 2 1/2SM -RA BR OVC002 11/11 A3025
RMK AO2 RAB18 T01110106 PNO $





000
SAUS44 KSHV 020146
MTRAQV
SPECI KAQV 020145Z AUTO 36004KT 2 1/2SM -RA BR OVC002 11/11 A3025
RMK AO2 RAB18 T01110106 PNO $





000
SAUS44 KSHV 020111
MTRAQV
SPECI KAQV 020110Z AUTO 36005KT 1 3/4SM BR OVC002 12/11 A3024 RMK
AO2 T01170106 PNO $





000
SAUS44 KSHV 020111
MTRAQV
SPECI KAQV 020110Z AUTO 36005KT 1 3/4SM BR OVC002 12/11 A3024 RMK
AO2 T01170106 PNO $





000
SAUS44 KSHV 020057
MTRAQV
METAR KAQV 020056Z AUTO 01005KT 4SM BR OVC002 12/11 A3023 RMK AO2
RAB01E24 SLP237 T01170106 PNO $





000
SAUS44 KSHV 020057
MTRAQV
METAR KAQV 020056Z AUTO 01005KT 4SM BR OVC002 12/11 A3023 RMK AO2
RAB01E24 SLP237 T01170106 PNO $





000
SAUS44 KSHV 020056
MTRBKB
METAR KBKB 020054Z AUTO 00000KT 3SM -RA BR OVC004 16/14 A3020 RMK
AO2 RAB00E20B27 SLP256 P0002 T01560139 $





000
SAUS44 KSHV 020056
MTRBKB
METAR KBKB 020054Z AUTO 00000KT 3SM -RA BR OVC004 16/14 A3020 RMK
AO2 RAB00E20B27 SLP256 P0002 T01560139 $





000
SAUS44 KSHV 020035
MTRBKB
SPECI KBKB 020034Z AUTO 00000KT 2SM -RA BR OVC003 16/14 A3021 RMK
AO2 RAB00E20B27 P0001 T01610139 $





000
SAUS44 KSHV 020026
MTRBKB
SPECI KBKB 020025Z AUTO 00000KT 4SM BR OVC003 16/14 A3021 RMK AO2
RAB00E20 P0000 T01610139 $





000
SAUS44 KSHV 020026
MTRBKB
SPECI KBKB 020025Z AUTO 00000KT 4SM BR OVC003 16/14 A3021 RMK AO2
RAB00E20 P0000 T01610139 $





000
SAUS44 KSHV 020018
MTRBKB
SPECI KBKB 020017Z AUTO 00000KT 2 1/2SM -RA BR OVC003 16/14 A3021
RMK AO2 VIS 1 1/2V5 RAB00 P0000 T01610139 $





000
SAUS44 KSHV 020018
MTRBKB
SPECI KBKB 020017Z AUTO 00000KT 2 1/2SM -RA BR OVC003 16/14 A3021
RMK AO2 VIS 1 1/2V5 RAB00 P0000 T01610139 $





000
SAUS44 KSHV 012358
MTRAQV
METAR KAQV 012356Z AUTO 36005KT 7SM OVC003 12/11 A3022 RMK AO2
RAB29E56 SLP233 6//// T01220111 10128 20111 53007 PNO $





000
SAUS44 KSHV 012358
MTRAQV
METAR KAQV 012356Z AUTO 36005KT 7SM OVC003 12/11 A3022 RMK AO2
RAB29E56 SLP233 6//// T01220111 10128 20111 53007 PNO $





000
SAUS44 KSHV 012355
MTRBKB
METAR KBKB 012354Z AUTO 00000KT 10SM BKN003 OVC015 16/14 A3020 RMK
AO2 SLP255 60034 T01610139 10172 20150 53003 $





000
SAUS44 KSHV 012355
MTRBKB
METAR KBKB 012354Z AUTO 00000KT 10SM BKN003 OVC015 16/14 A3020 RMK
AO2 SLP255 60034 T01610139 10172 20150 53003 $





000
SAUS44 KSHV 012350
MTRAQV
SPECI KAQV 012349Z AUTO 36003KT 3SM -RA BR OVC003 12/11 A3022 RMK
AO2 RAB29 T01220111 PNO $





000
SAUS44 KSHV 012350
MTRAQV
SPECI KAQV 012349Z AUTO 36003KT 3SM -RA BR OVC003 12/11 A3022 RMK
AO2 RAB29 T01220111 PNO $





000
SAUS44 KSHV 012343
MTRAQV
SPECI KAQV 012341Z AUTO 02004KT 1 3/4SM -RA BR OVC003 12/11 A3022
RMK AO2 RAB29 T01220111 PNO $





000
SAUS44 KSHV 012343
MTRAQV
SPECI KAQV 012341Z AUTO 02004KT 1 3/4SM -RA BR OVC003 12/11 A3022
RMK AO2 RAB29 T01220111 PNO $





000
SAUS44 KSHV 012257
MTRAQV
METAR KAQV 012256Z AUTO 35003KT 10SM OVC003 12/11 A3021 RMK AO2
RAE20B40E55 SLP229 T01220111 PNO $





000
SAUS44 KSHV 012257
MTRAQV
METAR KAQV 012256Z AUTO 35003KT 10SM OVC003 12/11 A3021 RMK AO2
RAE20B40E55 SLP229 T01220111 PNO $





000
SAUS44 KSHV 012255
MTRBKB
METAR KBKB 012254Z AUTO VRB03KT 9SM OVC003 16/14 A3019 RMK AO2
RAE20B42E52 SLP252 P0001 T01610139 $





000
SAUS44 KSHV 012255
MTRBKB
METAR KBKB 012254Z AUTO VRB03KT 9SM OVC003 16/14 A3019 RMK AO2
RAE20B42E52 SLP252 P0001 T01610139 $





000
SAUS44 KSHV 012233 COR
MTRAQV
SPECI KAQV 012228Z AUTO 00000KT 10SM BKN003 OVC015 12/11 A3021 RMK
AO2 RAE20 T01220111 PNO $





000
SAUS44 KSHV 012219
MTRAQV
SPECI KAQV 012218Z AUTO 00000KT 6SM -RA BR SCT003 OVC015 12/11 A3021
RMK AO2 T01220111 PNO $





000
SAUS44 KSHV 012212
MTRBKB
SPECI KBKB 012210Z AUTO VRB04KT 3SM -RA BR OVC004 17/14 A3019 RMK
AO2 P0001 T01670144 $





000
SAUS44 KSHV 012207
MTRAQV
SPECI KAQV 012205Z AUTO 36003KT 2SM -RA BR FEW003 OVC015 12/11 A3020
RMK AO2 T01220111 PNO $





000
SAUS44 KSHV 012207
MTRAQV
SPECI KAQV 012205Z AUTO 36003KT 2SM -RA BR FEW003 OVC015 12/11 A3020
RMK AO2 T01220111 PNO $





000
SAUS44 KSHV 012158
MTRAQV
METAR KAQV 012156Z AUTO 36003KT 1 1/2SM -RA BR BKN016 OVC020 12/11
A3021 RMK AO2 TSE03 SLP229 T01220111 PNO $





000
SAUS44 KSHV 012158
MTRAQV
METAR KAQV 012156Z AUTO 36003KT 1 1/2SM -RA BR BKN016 OVC020 12/11
A3021 RMK AO2 TSE03 SLP229 T01220111 PNO $





000
SAUS44 KSHV 012156
MTRBKB
METAR KBKB 012154Z AUTO VRB03KT 1 3/4SM -RA BR OVC003 17/14 A3019
RMK AO2 SLP252 P0009 T01670144 $





000
SAUS44 KSHV 012156
MTRBKB
METAR KBKB 012154Z AUTO VRB03KT 1 3/4SM -RA BR OVC003 17/14 A3019
RMK AO2 SLP252 P0009 T01670144 $





000
SAUS44 KSHV 012151
MTRBKB
SPECI KBKB 012150Z AUTO VRB03KT 2 1/2SM -RA BR OVC003 17/14 A3019
RMK AO2 P0008 $





000
SAUS44 KSHV 012137
MTRAQV
SPECI KAQV 012136Z AUTO 03003KT 1 1/4SM RA BR FEW003 SCT009 OVC016
12/11 A3021 RMK AO2 TSE03 T01170106 PNO $





000
SAUS44 KSHV 012137
MTRAQV
SPECI KAQV 012136Z AUTO 03003KT 1 1/4SM RA BR FEW003 SCT009 OVC016
12/11 A3021 RMK AO2 TSE03 T01170106 PNO $





000
SAUS44 KSHV 012134
MTRAQV
SPECI KAQV 012133Z AUTO 04003KT 1 3/4SM -RA BR SCT003 BKN008 OVC017
12/11 A3021 RMK AO2 TSE03 T01170106 PNO $





000
SAUS44 KSHV 012134
MTRAQV
SPECI KAQV 012133Z AUTO 04003KT 1 3/4SM -RA BR SCT003 BKN008 OVC017
12/11 A3021 RMK AO2 TSE03 T01170106 PNO $





000
SAUS44 KSHV 012132
MTRAQV
SPECI KAQV 012131Z AUTO 00000KT 2 1/2SM -RA BR SCT003 BKN010 OVC015
12/11 A3021 RMK AO2 TSE03 T01170106 PNO $





000
SAUS44 KSHV 012127
MTRBKB
SPECI KBKB 012126Z AUTO VRB03KT 1 1/4SM RA BR BKN003 OVC008 17/15
A3019 RMK AO2 P0005 T01720150 $





000
SAUS44 KSHV 012127
MTRBKB
SPECI KBKB 012126Z AUTO VRB03KT 1 1/4SM RA BR BKN003 OVC008 17/15
A3019 RMK AO2 P0005 T01720150 $





000
SAUS44 KSHV 012119
MTRBKB
SPECI KBKB 012118Z AUTO 00000KT 1 3/4SM -RA BR SCT003 BKN006 OVC014
17/15 A3018 RMK AO2 P0002 T01720150 $





000
SAUS44 KSHV 012119
MTRAQV
SPECI KAQV 012118Z AUTO 34004KT 3SM -RA BR SCT003 BKN008 OVC014
12/11 A3021 RMK AO2 TSE03 T01170106 PNO $





000
SAUS44 KSHV 012115
MTRAQV
SPECI KAQV 012114Z AUTO VRB03KT 1 3/4SM -RA BR SCT003 BKN008 OVC014
12/11 A3022 RMK AO2 TSE03 T01170106 PNO $





000
SAUS44 KSHV 012115
MTRAQV
SPECI KAQV 012114Z AUTO VRB03KT 1 3/4SM -RA BR SCT003 BKN008 OVC014
12/11 A3022 RMK AO2 TSE03 T01170106 PNO $





000
SAUS44 KSHV 012107
MTRAQV
SPECI KAQV 012105Z AUTO VRB05KT 1 1/4SM RA BR SCT003 SCT008 OVC014
12/11 A3021 RMK AO2 TSE03 T01170106 PNO $





000
SAUS44 KSHV 012103
MTRAQV
SPECI KAQV 012102Z AUTO 35005KT 1 3/4SM TSRA BR SCT003 OVC014 12/11
A3020 RMK AO2 T01170106 PNO $





000
SAUS44 KSHV 012101
MTRBKB
SPECI KBKB 012059Z AUTO 00000KT 3SM -RA BR SCT004 BKN008 OVC014
17/15 A3017 RMK AO2 P0000 T01670150 $





000
SAUS44 KSHV 012101
MTRBKB
SPECI KBKB 012059Z AUTO 00000KT 3SM -RA BR SCT004 BKN008 OVC014
17/15 A3017 RMK AO2 P0000 T01670150 $





000
SAUS44 KSHV 012058
MTRAQV
METAR KAQV 012056Z AUTO 36006KT 2 1/2SM -TSRA BR BKN003 OVC014 11/10
A3020 RMK AO2 TSB28 SLP226 6//// T01110100 55000 PNO $





000
SAUS44 KSHV 012058
MTRAQV
METAR KAQV 012056Z AUTO 36006KT 2 1/2SM -TSRA BR BKN003 OVC014 11/10
A3020 RMK AO2 TSB28 SLP226 6//// T01110100 55000 PNO $





000
SAUS44 KSHV 012056
MTRBKB
METAR KBKB 012054Z AUTO 00000KT 1 1/4SM -RA BR FEW004 BKN008 OVC018
17/14 A3017 RMK AO2 SLP246 P0008 60024 T01670144 56015 $





000
SAUS44 KSHV 012056
MTRBKB
METAR KBKB 012054Z AUTO 00000KT 1 1/4SM -RA BR FEW004 BKN008 OVC018
17/14 A3017 RMK AO2 SLP246 P0008 60024 T01670144 56015 $





000
SAUS44 KSHV 012054
MTRAQV
SPECI KAQV 012053Z AUTO 36009KT 2 1/2SM -TSRA BR BKN003 BKN007
OVC014 11/10 A3020 RMK AO2 TSB28 PNO $





000
SAUS44 KSHV 012049
MTRBKB
SPECI KBKB 012048Z AUTO 00000KT 1 1/2SM RA BR OVC007 17/15 A3018 RMK
AO2 P0006 $





000
SAUS44 KSHV 012049
MTRBKB
SPECI KBKB 012048Z AUTO 00000KT 1 1/2SM RA BR OVC007 17/15 A3018 RMK
AO2 P0006 $





000
SAUS44 KSHV 012042
MTRAQV
SPECI KAQV 012041Z AUTO VRB05KT 1 3/4SM TSRA BR BKN003 OVC011 12/11
A3021 RMK AO2 TSB28 T01170106 PNO $





000
SAUS44 KSHV 012042
MTRAQV
SPECI KAQV 012041Z AUTO VRB05KT 1 3/4SM TSRA BR BKN003 OVC011 12/11
A3021 RMK AO2 TSB28 T01170106 PNO $





000
SAUS44 KSHV 012030
MTRBKB
SPECI KBKB 012029Z AUTO 00000KT 6SM -RA BR FEW003 OVC009 17/14 A3017
RMK AO2 P0002 T01670144 $





000
SAUS44 KSHV 012029
MTRAQV
SPECI KAQV 012028Z AUTO 00000KT 3SM -TSRA BR OVC003 12/11 A3021 RMK
AO2 TSB28 T01170106 PNO $





000
SAUS44 KSHV 012015
MTRAQV
SPECI KAQV 012014Z AUTO VRB03KT 2SM RA BR OVC003 12/11 A3021 RMK AO2
VIS 1 1/2V4 T01170111 PNO $





000
SAUS44 KSHV 012015
MTRAQV
SPECI KAQV 012014Z AUTO VRB03KT 2SM RA BR OVC003 12/11 A3021 RMK AO2
VIS 1 1/2V4 T01170111 PNO $





000
SAUS44 KSHV 012008
MTRBKB
SPECI KBKB 012006Z AUTO 00000KT 6SM -RA BR SCT002 OVC011 16/14 A3018
RMK AO2 CIG 008V012 P0000 T01560139 $





000
SAUS44 KSHV 012008
MTRBKB
SPECI KBKB 012006Z AUTO 00000KT 6SM -RA BR SCT002 OVC011 16/14 A3018
RMK AO2 CIG 008V012 P0000 T01560139 $





000
SAUS44 KSHV 012005
MTRAQV
SPECI KAQV 012004Z AUTO 01004KT 3SM -RA BR OVC004 12/11 A3020 RMK
AO2 T01220111 PNO $





000
SAUS44 KSHV 011957
MTRAQV
METAR KAQV 011956Z AUTO 03004KT 2SM -RA BR BKN004 OVC010 12/11 A3019
RMK AO2 SLP225 T01220111 PNO $





000
SAUS44 KSHV 011956
MTRBKB
METAR KBKB 011954Z AUTO 00000KT 8SM -RA BKN002 OVC011 16/14 A3018
RMK AO2 CIG 002V007 SLP248 P0004 T01560139 $





000
SAUS44 KSHV 011956
MTRBKB
METAR KBKB 011954Z AUTO 00000KT 8SM -RA BKN002 OVC011 16/14 A3018
RMK AO2 CIG 002V007 SLP248 P0004 T01560139 $





000
SAUS44 KSHV 011953
MTRAQV
SPECI KAQV 011951Z AUTO 04003KT 1 1/4SM +RA BR OVC004 12/11 A3020
RMK AO2 PNO $





000
SAUS44 KSHV 011945
MTRAQV
SPECI KAQV 011944Z AUTO VRB03KT 1 3/4SM RA BR OVC006 12/11 A3021 RMK
AO2 T01220111 PNO $





000
SAUS44 KSHV 011942
MTRAQV
SPECI KAQV 011940Z AUTO 00000KT 3SM -RA BR OVC006 12/11 A3021 RMK
AO2 CIG 002V007 P0000 T01220111 $





000
SAUS44 KSHV 011927
MTRAQV
SPECI KAQV 011926Z AUTO 35008KT 3SM -RA BR BKN003 OVC008 12/11 A3021
RMK AO2 CIG 002V005 P0000 T01220111 $





000
SAUS44 KSHV 011927
MTRAQV
SPECI KAQV 011926Z AUTO 35008KT 3SM -RA BR BKN003 OVC008 12/11 A3021
RMK AO2 CIG 002V005 P0000 T01220111 $





000
SAUS44 KSHV 011925
MTRBKB
SPECI KBKB 011923Z AUTO 04004KT 6SM -RA BR OVC005 15/13 A3020 RMK
AO2 P0004 T01500133 $





000
SAUS44 KSHV 011916
MTRBKB
SPECI KBKB 011915Z AUTO 00000KT 2 1/2SM -RA BR OVC003 15/13 A3021
RMK AO2 VIS 3/4V5 P0003 T01500133 $





000
SAUS44 KSHV 011916
MTRBKB
SPECI KBKB 011915Z AUTO 00000KT 2 1/2SM -RA BR OVC003 15/13 A3021
RMK AO2 VIS 3/4V5 P0003 T01500133 $





000
SAUS44 KSHV 011908
MTRBKB
SPECI KBKB 011906Z AUTO 00000KT 6SM -RA BR BKN003 OVC007 16/13 A3021
RMK AO2 P0001 T01560133 $





000
SAUS44 KSHV 011857
MTRAQV
METAR KAQV 011856Z AUTO 04003KT 6SM -RA BR BKN005 OVC013 12/11 A3022
RMK AO2 CIG 002V008 SLP235 T01220111 PNO $





000
SAUS44 KSHV 011857
MTRAQV
METAR KAQV 011856Z AUTO 04003KT 6SM -RA BR BKN005 OVC013 12/11 A3022
RMK AO2 CIG 002V008 SLP235 T01220111 PNO $





000
SAUS44 KSHV 011855
MTRBKB
METAR KBKB 011854Z AUTO VRB03KT 10SM -RA OVC005 16/13 A3022 RMK AO2
CIG 002V008 SLP261 P0012 T01560133 $





000
SAUS44 KSHV 011855
MTRBKB
METAR KBKB 011854Z AUTO VRB03KT 10SM -RA OVC005 16/13 A3022 RMK AO2
CIG 002V008 SLP261 P0012 T01560133 $





000
SAUS44 KSHV 011853
MTRBKB
SPECI KBKB 011852Z AUTO 00000KT 10SM -RA OVC005 16/13 A3022 RMK AO2
CIG 002V008 P0012 $





000
SAUS44 KSHV 011853
MTRBKB
SPECI KBKB 011852Z AUTO 00000KT 10SM -RA OVC005 16/13 A3022 RMK AO2
CIG 002V008 P0012 $





000
SAUS44 KSHV 011837
MTRAQV
SPECI KAQV 011836Z AUTO 00000KT 5SM -RA BR OVC005 12/11 A3023 RMK
AO2 T01220111 PNO $





000
SAUS44 KSHV 011827
MTRBKB
SPECI KBKB 011826Z AUTO 00000KT 6SM -RA BR OVC003 16/13 A3022 RMK
AO2 P0012 T01560133 $





000
SAUS44 KSHV 011827
MTRBKB
SPECI KBKB 011826Z AUTO 00000KT 6SM -RA BR OVC003 16/13 A3022 RMK
AO2 P0012 T01560133 $





000
SAUS44 KSHV 011824
MTRAQV
SPECI KAQV 011823Z AUTO 35003KT 2SM RA BR BKN005 OVC011 12/11 A3024
RMK AO2 T01220111 PNO $





000
SAUS44 KSHV 011824
MTRAQV
SPECI KAQV 011823Z AUTO 35003KT 2SM RA BR BKN005 OVC011 12/11 A3024
RMK AO2 T01220111 PNO $





000
SAUS44 KSHV 011820
MTRBKB
SPECI KBKB 011818Z AUTO 00000KT 2SM -RA BR OVC003 15/13 A3023 RMK
AO2 P0012 T01500133 $





000
SAUS44 KSHV 011815
MTRAQV
SPECI KAQV 011814Z AUTO 00000KT 1 1/4SM +RA BR OVC003 12/11 A3024
RMK AO2 T01220111 PNO $





000
SAUS44 KSHV 011811
MTRBKB
SPECI KBKB 011809Z AUTO VRB03KT 3/4SM RA BR OVC004 15/13 A3022 RMK
AO2 VIS 1/4V2 P0010 T01500133 $





000
SAUS44 KSHV 011811
MTRBKB
SPECI KBKB 011809Z AUTO VRB03KT 3/4SM RA BR OVC004 15/13 A3022 RMK
AO2 VIS 1/4V2 P0010 T01500133 $





000
SAUS44 KSHV 011806
MTRAQV
SPECI KAQV 011805Z AUTO 00000KT 2 1/2SM -RA BR OVC003 12/11 A3025
RMK AO2 T01220111 PNO $





000
SAUS44 KSHV 011806
MTRAQV
SPECI KAQV 011805Z AUTO 00000KT 2 1/2SM -RA BR OVC003 12/11 A3025
RMK AO2 T01220111 PNO $





000
SAUS44 KSHV 011757 COR
MTRBKB
METAR KBKB 011754Z AUTO 00000KT 1SM RA BR BKN002 OVC010 15/13 A3021
RMK AO2 TSB11E26 SLP257 P0081 60120 T01500133 10150 20117 58016 $





000
SAUS44 KSHV 011757
MTRAQV
METAR KAQV 011756Z AUTO 00000KT 1 3/4SM RA BR OVC003 12/11 A3024 RMK
AO2 SLP241 6//// T01220111 10122 20089 58006 PNO $





000
SAUS44 KSHV 011757 COR
MTRBKB
METAR KBKB 011754Z AUTO 00000KT 1SM RA BR BKN002 OVC010 15/13 A3021
RMK AO2 TSB11E26 SLP257 P0081 60120 T01500133 10150 20117 58016 $





000
SAUS44 KSHV 011757
MTRAQV
METAR KAQV 011756Z AUTO 00000KT 1 3/4SM RA BR OVC003 12/11 A3024 RMK
AO2 SLP241 6//// T01220111 10122 20089 58006 PNO $





000
SAUS44 KSHV 011756 COR
MTRBKB
METAR KBKB 011754Z AUTO 00000KT 1SM RA BR BKN002 OVC010 15/13 A3021
RMK AO2 TSB11E26 SLP257 P0081 60120 T01500133 10150 20117 58016 $





000
SAUS44 KSHV 011756 COR
MTRBKB
METAR KBKB 011754Z AUTO 00000KT 1SM RA BR BKN002 OVC010 15/13 A3021
RMK AO2 TSB11E26 SLP257 P0081 60120 T01500133 10150 20117 58016 $





000
SAUS44 KSHV 011738
MTRBKB
SPECI KBKB 011737Z AUTO 00000KT 1/2SM +RA FG SCT003 OVC012 14/12
A3023 RMK AO2 TSB11E26 P0057 T01440122 $





000
SAUS44 KSHV 011735
MTRAQV
SPECI KAQV 011734Z AUTO 04004KT 1 3/4SM RA BR OVC003 12/11 A3025 RMK
AO2 P0000 T01220111





000
SAUS44 KSHV 011735
MTRAQV
SPECI KAQV 011734Z AUTO 04004KT 1 3/4SM RA BR OVC003 12/11 A3025 RMK
AO2 P0000 T01220111





000
SAUS44 KSHV 011733
MTRBKB
SPECI KBKB 011732Z AUTO 12004KT 3/4SM RA BR BKN003 OVC009 14/12
A3024 RMK AO2 TSB11E26 P0042 T01390122 $





000
SAUS44 KSHV 011733
MTRBKB
SPECI KBKB 011732Z AUTO 12004KT 3/4SM RA BR BKN003 OVC009 14/12
A3024 RMK AO2 TSB11E26 P0042 T01390122 $





000
SAUS44 KSHV 011718
MTRBKB
SPECI KBKB 011717Z AUTO 00000KT 1/2SM TSRA FG OVC003 14/12 A3025 RMK
AO2 TSB11 P0025 T01390117 $





000
SAUS44 KSHV 011717
MTRAQV
SPECI KAQV 011716Z AUTO VRB03KT 3SM -RA BR OVC003 12/11 A3026 RMK
AO2 P0000 T01220111





000
SAUS44 KSHV 011717
MTRAQV
SPECI KAQV 011716Z AUTO VRB03KT 3SM -RA BR OVC003 12/11 A3026 RMK
AO2 P0000 T01220111





000
SAUS44 KSHV 011658
MTRAQV
METAR KAQV 011656Z AUTO 08004KT 1 1/4SM +RA BR OVC003 12/11 A3026
RMK AO2 RAB40 SLP248 P0000 T01220106





000
SAUS44 KSHV 011656
MTRBKB
METAR KBKB 011654Z AUTO 00000KT 3/4SM +RA BR OVC002 14/12 A3025 RMK
AO2 SLP271 P0022 T01390117 $





000
SAUS44 KSHV 011656
MTRBKB
METAR KBKB 011654Z AUTO 00000KT 3/4SM +RA BR OVC002 14/12 A3025 RMK
AO2 SLP271 P0022 T01390117 $





000
SAUS44 KSHV 011647
MTRAQV
SPECI KAQV 011646Z AUTO 00000KT 2 1/2SM -RA BR OVC003 12/11 A3027
RMK AO2 RAB40 P0000 T01220111





000
SAUS44 KSHV 011647
MTRAQV
SPECI KAQV 011646Z AUTO 00000KT 2 1/2SM -RA BR OVC003 12/11 A3027
RMK AO2 RAB40 P0000 T01220111





000
SAUS44 KSHV 011615
MTRBKB
SPECI KBKB 011614Z AUTO 00000KT 1 3/4SM -RA BR OVC003 14/12 A3027
RMK AO2 P0004 T01390117 $





000
SAUS44 KSHV 011615
MTRBKB
SPECI KBKB 011614Z AUTO 00000KT 1 3/4SM -RA BR OVC003 14/12 A3027
RMK AO2 P0004 T01390117 $





000
SAUS44 KSHV 011557
MTRAQV
METAR KAQV 011556Z AUTO 00000KT 4SM BR OVC003 11/09 A3027 RMK AO2
RAE08 SLP249 P0000 T01110094





000
SAUS44 KSHV 011556
MTRBKB
METAR KBKB 011554Z AUTO VRB03KT 3SM -RA BR OVC003 14/12 A3026 RMK
AO2 RAB01 SLP276 P0001 T01390117 $





000
SAUS44 KSHV 011556
MTRBKB
METAR KBKB 011554Z AUTO VRB03KT 3SM -RA BR OVC003 14/12 A3026 RMK
AO2 RAB01 SLP276 P0001 T01390117 $





000
SAUS44 KSHV 011544
MTRBKB
SPECI KBKB 011542Z AUTO VRB03KT 3SM -RA BR OVC003 14/12 A3025 RMK
AO2 RAB01 P0001 T01390117 $





000
SAUS44 KSHV 011544
MTRBKB
SPECI KBKB 011542Z AUTO VRB03KT 3SM -RA BR OVC003 14/12 A3025 RMK
AO2 RAB01 P0001 T01390117 $





000
SAUS44 KSHV 011532
MTRBKB
SPECI KBKB 011531Z AUTO 00000KT 2 1/2SM -RA BR BKN003 OVC007 14/12
A3025 RMK AO2 RAB01 P0001 T01390117 $





000
SAUS44 KSHV 011525
MTRAQV
SPECI KAQV 011524Z AUTO 00000KT 4SM BR OVC004 11/09 A3026 RMK AO2
RAE08 P0000 T01060089





000
SAUS44 KSHV 011522
MTRBKB
SPECI KBKB 011521Z AUTO 00000KT 2SM -RA BR OVC005 13/11 A3025 RMK
AO2 RAB01 CIG 002V009 P0001 T01330111 $





000
SAUS44 KSHV 011516
MTRBKB
SPECI KBKB 011514Z AUTO 00000KT 1 3/4SM -RA BR OVC005 13/11 A3025
RMK AO2 RAB01 CIG 002V009 P0001 T01280106 $





000
SAUS44 KSHV 011514
MTRAQV
SPECI KAQV 011513Z AUTO 01004KT 3SM BR OVC005 10/09 A3026 RMK AO2
RAE08 CIG 002V007 P0000 T01000089





000
SAUS44 KSHV 011501 COR
MTRAQV
METAR KAQV 011456Z AUTO 01004KT 2 1/2SM -RA BR OVC008 10/09 A3026
RMK AO2 RAB00E30B51 CIG 005V012 SLP247 P0000 60000 T01000089 50003





000
SAUS44 KSHV 011501 COR
MTRAQV
METAR KAQV 011456Z AUTO 01004KT 2 1/2SM -RA BR OVC008 10/09 A3026
RMK AO2 RAB00E30B51 CIG 005V012 SLP247 P0000 60000 T01000089 50003





000
SAUS44 KSHV 011459 COR
MTRAQV
METAR KAQV 011456Z AUTO 01004KT 2 1/2SM -RA BR OVC008 10/09 A3026
RMK AO2 RAB00E30B51 CIG 005V012 SLP247 P0000 60000 T01000089 50003





000
SAUS44 KSHV 011459 COR
MTRAQV
METAR KAQV 011456Z AUTO 01004KT 2 1/2SM -RA BR OVC008 10/09 A3026
RMK AO2 RAB00E30B51 CIG 005V012 SLP247 P0000 60000 T01000089 50003





000
SAUS44 KSHV 011458 COR
MTRAQV
METAR KAQV 011456Z AUTO 01004KT 2 1/2SM -RA BR OVC008 10/09 A3026
RMK AO2 RAB00E30B51 CIG 005V012 SLP247 P0000 60000 T01000089 50003





000
SAUS44 KSHV 011458 COR
MTRAQV
METAR KAQV 011456Z AUTO 01004KT 2 1/2SM -RA BR OVC008 10/09 A3026
RMK AO2 RAB00E30B51 CIG 005V012 SLP247 P0000 60000 T01000089 50003





000
SAUS44 KSHV 011457
MTRAQV
METAR KAQV 011456Z AUTO 01004KT 2 1/2SM -RA BR OVC008 10/09 A3026
RMK AO2 RAB00E30B51 CIG 005V012 SLP247 P0000 60000 T01000089 50003





000
SAUS44 KSHV 011457
MTRAQV
METAR KAQV 011456Z AUTO 01004KT 2 1/2SM -RA BR OVC008 10/09 A3026
RMK AO2 RAB00E30B51 CIG 005V012 SLP247 P0000 60000 T01000089 50003





000
SAUS44 KSHV 011456
MTRBKB
METAR KBKB 011454Z AUTO 00000KT 2 1/2SM BR OVC004 12/10 A3026 RMK
AO2 RAE1356B10E40 SLP275 P0000 60016 T01220100 53011 $





000
SAUS44 KSHV 011456
MTRBKB
METAR KBKB 011454Z AUTO 00000KT 2 1/2SM BR OVC004 12/10 A3026 RMK
AO2 RAE1356B10E40 SLP275 P0000 60016 T01220100 53011 $





000
SAUS44 KSHV 011453
MTRAQV
SPECI KAQV 011451Z AUTO 36003KT 2 1/2SM -RA BR OVC008 10/08 A3026
RMK AO2 RAB00E30B51 CIG 005V011 P0000





000
SAUS44 KSHV 011453
MTRAQV
SPECI KAQV 011451Z AUTO 36003KT 2 1/2SM -RA BR OVC008 10/08 A3026
RMK AO2 RAB00E30B51 CIG 005V011 P0000





000
SAUS44 KSHV 011445
MTRBKB
SPECI KBKB 011443Z AUTO 00000KT 2 1/2SM BR OVC004 12/10 A3025 RMK
AO2 RAE1356B10E40 P0000 T01220100 $





000
SAUS44 KSHV 011433
MTRBKB
SPECI KBKB 011432Z AUTO 00000KT 1 1/2SM -RA BR OVC004 12/09 A3025
RMK AO2 RAE1356B10 P0000 T01170094 $





000
SAUS44 KSHV 011428
MTRAQV
SPECI KAQV 011427Z AUTO 01003KT 3SM -RA BR FEW008 BKN012 OVC027
09/08 A3026 RMK AO2 RAB00 P0000 T00940078





000
SAUS44 KSHV 011424
MTRAQV
SPECI KAQV 011423Z AUTO 02003KT 2 1/2SM -RA BR FEW010 BKN016 OVC039
09/08 A3025 RMK AO2 RAB00 P0000 T00940078





000
SAUS44 KSHV 011410
MTRAQV
SPECI KAQV 011409Z AUTO 01003KT 4SM -RA BR SCT009 BKN016 OVC044
09/08 A3025 RMK AO2 RAB00 P0000 T00940078





000
SAUS44 KSHV 011410
MTRAQV
SPECI KAQV 011409Z AUTO 01003KT 4SM -RA BR SCT009 BKN016 OVC044
09/08 A3025 RMK AO2 RAB00 P0000 T00940078





000
SAUS44 KSHV 011407
MTRAQV
SPECI KAQV 011406Z AUTO 00000KT 4SM -RA BR BKN010 BKN016 OVC043
09/08 A3025 RMK AO2 RAB00 P0000 T00940078





000
SAUS44 KSHV 011406
MTRBKB
SPECI KBKB 011404Z AUTO 00000KT 2 1/2SM BR BKN007 BKN011 OVC030
12/09 A3024 RMK AO2 RAE1356 P0000 T01170094 $





000
SAUS44 KSHV 011358
MTRAQV
METAR KAQV 011356Z AUTO 00000KT 7SM SCT010 BKN030 OVC038 09/08 A3025
RMK AO2 RAB17E45 SLP244 P0000 T00940078





000
SAUS44 KSHV 011358
MTRAQV
METAR KAQV 011356Z AUTO 00000KT 7SM SCT010 BKN030 OVC038 09/08 A3025
RMK AO2 RAB17E45 SLP244 P0000 T00940078





000
SAUS44 KSHV 011358
MTRBKB
SPECI KBKB 011357Z AUTO 00000KT 3SM BR SCT007 BKN010 OVC030 12/09
A3024 RMK AO2 RAE56 P0000 T01170094 $





000
SAUS44 KSHV 011358
MTRBKB
SPECI KBKB 011357Z AUTO 00000KT 3SM BR SCT007 BKN010 OVC030 12/09
A3024 RMK AO2 RAE56 P0000 T01170094 $





000
SAUS44 KSHV 011356
MTRBKB
METAR KBKB 011354Z AUTO 00000KT 2 1/2SM -RA BR BKN007 BKN010 OVC030
12/09 A3024 RMK AO2 RAB20 TSB39E54 SLP269 P0015 T01170094 $





000
SAUS44 KSHV 011354
MTRAQV
SPECI KAQV 011353Z AUTO 00000KT 7SM BKN010 BKN030 OVC038 09/08 A3025
RMK AO2 RAB17E45 P0000





000
SAUS44 KSHV 011349 COR
MTRBKB
SPECI KBKB 011347Z AUTO 00000KT 1SM -TSRA BR SCT007 BKN010 OVC030
12/09 A3024 RMK AO2 RAB20 TSB39 P0015 T01170094 $





000
SAUS44 KSHV 011348 COR
MTRBKB
SPECI KBKB 011347Z AUTO 00000KT 1SM -TSRA BR SCT007 BKN010 OVC030
12/09 A3024 RMK AO2 RAB20 TSB39 P0015 T01170094 $





000
SAUS44 KSHV 011338
MTRBKB
SPECI KBKB 011337Z AUTO 00000KT 1/2SM +RA FG BKN007 OVC016 12/09
A3024 RMK AO2 RAB20 P0014 T01170094 $





000
SAUS44 KSHV 011332
MTRAQV
SPECI KAQV 011331Z AUTO 00000KT 5SM -RA BR BKN009 BKN037 OVC046
09/07 A3025 RMK AO2 RAB17 P0000 T00890072





000
SAUS44 KSHV 011326
MTRBKB
SPECI KBKB 011325Z AUTO 00000KT 1 3/4SM RA BR OVC007 12/10 A3024 RMK
AO2 RAB20 P0002 T01220100 $





000
SAUS44 KSHV 011326
MTRBKB
SPECI KBKB 011325Z AUTO 00000KT 1 3/4SM RA BR OVC007 12/10 A3024 RMK
AO2 RAB20 P0002 T01220100 $





000
SAUS44 KSHV 011257
MTRAQV
METAR KAQV 011256Z AUTO 00000KT 8SM OVC010 09/07 A3024 RMK AO2
RAB16E35 SLP243 P0000 T00890072





000
SAUS44 KSHV 011257
MTRAQV
METAR KAQV 011256Z AUTO 00000KT 8SM OVC010 09/07 A3024 RMK AO2
RAB16E35 SLP243 P0000 T00890072





000
SAUS44 KSHV 011256
MTRBKB
METAR KBKB 011254Z AUTO 00000KT 6SM BR OVC009 12/10 A3023 RMK AO2
RAB08E54 CIG 008V012 SLP265 P0001 T01220100 $





000
SAUS44 KSHV 011256
MTRBKB
METAR KBKB 011254Z AUTO 00000KT 6SM BR OVC009 12/10 A3023 RMK AO2
RAB08E54 CIG 008V012 SLP265 P0001 T01220100 $





000
SAUS44 KSHV 011218
MTRBKB
SPECI KBKB 011217Z AUTO 00000KT 7SM -RA BKN011 BKN027 OVC085 12/09
A3023 RMK AO2 RAB08 P0000 T01220094 $





000
SAUS44 KSHV 011218
MTRBKB
SPECI KBKB 011217Z AUTO 00000KT 7SM -RA BKN011 BKN027 OVC085 12/09
A3023 RMK AO2 RAB08 P0000 T01220094 $





000
SAUS44 KSHV 011158 COR
MTRBKB
METAR KBKB 011154Z AUTO 00000KT 10SM SCT044 BKN055 OVC080 12/09
A3022 RMK AO2 RAB03E16B30E38 SLP263 P0000 60000 T01220094 10139
20122 53007 $





000
SAUS44 KSHV 011157
MTRAQV
METAR KAQV 011156Z AUTO 00000KT 10SM OVC010 10/06 A3024 RMK AO2
SLP240 T01000056 10106 20094 53006





000
SAUS44 KSHV 011157 COR
MTRBKB
METAR KBKB 011154Z AUTO 00000KT 10SM SCT044 BKN055 OVC080 12/09
A3022 RMK AO2 RAB03E16B30E38 SLP263 P0000 60000 T01220094 10139
20122 53007 $





000
SAUS44 KSHV 011156
MTRBKB
METAR KBKB 011154Z AUTO 00000KT 10SM SCT044 BKN055 OVC080 12/09
A3022 RMK AO2 RAB03E16B30E38 SLP263 P0000 60000 T01220094 10139
20122 53007 $





000
SAUS44 KSHV 011123
MTRBKB
SPECI KBKB 011122Z AUTO 00000KT 10SM FEW010 BKN065 OVC075 12/09
A3021 RMK AO2 RAB03E16 P0000 T01220094 $





000
SAUS44 KSHV 011123
MTRBKB
SPECI KBKB 011122Z AUTO 00000KT 10SM FEW010 BKN065 OVC075 12/09
A3021 RMK AO2 RAB03E16 P0000 T01220094 $





000
SAUS44 KSHV 011057
MTRAQV
METAR KAQV 011056Z AUTO 00000KT 10SM OVC011 11/06 A3023 RMK AO2
SLP237 T01060056





000
SAUS44 KSHV 011056
MTRBKB
METAR KBKB 011054Z AUTO 00000KT 10SM OVC011 13/09 A3021 RMK AO2
SLP260 T01330094 $





000
SAUS44 KSHV 011041
MTRBKB
SPECI KBKB 011040Z AUTO 00000KT 10SM BKN011 OVC065 13/09 A3021 RMK
AO2 T01330094 $





000
SAUS44 KSHV 010957
MTRAQV
METAR KAQV 010956Z AUTO 00000KT 10SM OVC012 10/06 A3022 RMK AO2
SLP235 T01000056





000
SAUS44 KSHV 010957
MTRAQV
METAR KAQV 010956Z AUTO 00000KT 10SM OVC012 10/06 A3022 RMK AO2
SLP235 T01000056





000
SAUS44 KSHV 010955
MTRBKB
METAR KBKB 010954Z AUTO 00000KT 10SM BKN065 OVC080 13/09 A3020 RMK
AO2 SLP256 T01330089 $





000
SAUS44 KSHV 010955
MTRBKB
METAR KBKB 010954Z AUTO 00000KT 10SM BKN065 OVC080 13/09 A3020 RMK
AO2 SLP256 T01330089 $





000
SAUS44 KSHV 010941
MTRAQV
SPECI KAQV 010940Z AUTO 00000KT 10SM BKN012 BKN045 OVC100 10/06
A3023 RMK AO2 T01000056





000
SAUS44 KSHV 010857
MTRAQV
METAR KAQV 010856Z AUTO 00000KT 10SM FEW013 SCT043 OVC100 10/06
A3022 RMK AO2 SLP233 T01000056 56013





000
SAUS44 KSHV 010857
MTRAQV
METAR KAQV 010856Z AUTO 00000KT 10SM FEW013 SCT043 OVC100 10/06
A3022 RMK AO2 SLP233 T01000056 56013





000
SAUS44 KSHV 010855
MTRBKB
METAR KBKB 010854Z AUTO 00000KT 10SM SCT065 OVC110 13/08 A3020 RMK
AO2 SLP255 T01330083 $





000
SAUS44 KSHV 010855
MTRBKB
METAR KBKB 010854Z AUTO 00000KT 10SM SCT065 OVC110 13/08 A3020 RMK
AO2 SLP255 T01330083 $





000
SAUS44 KSHV 010825 COR
MTRAQV
SPECI KAQV 010821Z AUTO 00000KT 10SM OVC014 10/05 A3023 RMK AO2
T01000050





000
SAUS44 KSHV 010825 COR
MTRAQV
SPECI KAQV 010821Z AUTO 00000KT 10SM OVC014 10/05 A3023 RMK AO2
T01000050





000
SAUS44 KSHV 010824 COR
MTRAQV
SPECI KAQV 010821Z AUTO 00000KT 10SM OVC014 10/05 A3023 RMK AO2
T01000050





000
SAUS44 KSHV 010824 COR
MTRAQV
SPECI KAQV 010821Z AUTO 00000KT 10SM OVC014 10/05 A3023 RMK AO2
T01000050





000
SAUS44 KSHV 010823 COR
MTRAQV
SPECI KAQV 010821Z AUTO 00000KT 10SM OVC014 10/05 A3023 RMK AO2
T01000050





000
SAUS44 KSHV 010823 COR
MTRAQV
SPECI KAQV 010821Z AUTO 00000KT 10SM OVC014 10/05 A3023 RMK AO2
T01000050





000
SAUS44 KSHV 010822
MTRAQV
SPECI KAQV 010821Z AUTO 00000KT 10SM OVC014 10/05 A3023 RMK AO2
T01000050





000
SAUS44 KSHV 010822
MTRAQV
SPECI KAQV 010821Z AUTO 00000KT 10SM OVC014 10/05 A3023 RMK AO2
T01000050





000
SAUS44 KSHV 010757
MTRAQV
METAR KAQV 010756Z AUTO 00000KT 10SM BKN015 OVC110 10/05 A3022 RMK
AO2 SLP235 T01000050





000
SAUS44 KSHV 010755
MTRBKB
METAR KBKB 010754Z AUTO 00000KT 10SM 12/06 A3022 RMK AO2 SLP262
T01220056 $





000
SAUS44 KSHV 010657
MTRAQV
METAR KAQV 010656Z AUTO VRB03KT 10SM FEW017 BKN110 10/04 A3024 RMK
AO2 SLP242 T01000044





000
SAUS44 KSHV 010657
MTRAQV
METAR KAQV 010656Z AUTO VRB03KT 10SM FEW017 BKN110 10/04 A3024 RMK
AO2 SLP242 T01000044





000
SAUS44 KSHV 010655
MTRBKB
METAR KBKB 010654Z AUTO 00000KT 10SM OVC100 12/04 A3023 RMK AO2
SLP265 T01220044





000
SAUS44 KSHV 010655
MTRBKB
METAR KBKB 010654Z AUTO 00000KT 10SM OVC100 12/04 A3023 RMK AO2
SLP265 T01220044





000
SAUS44 KSHV 010557
MTRAQV
METAR KAQV 010556Z AUTO 07003KT 10SM OVC060 11/04 A3026 RMK AO2
SLP247 T01060039 10106 20094 401220000 58004





000
SAUS44 KSHV 010557
MTRAQV
METAR KAQV 010556Z AUTO 07003KT 10SM OVC060 11/04 A3026 RMK AO2
SLP247 T01060039 10106 20094 401220000 58004





000
SAUS44 KSHV 010556
MTRBKB
METAR KBKB 010554Z AUTO VRB03KT 10SM SCT085 OVC110 12/04 A3024 RMK
AO2 SLP271 T01220039 10139 20122 401670006 58006





000
SAUS44 KSHV 010556
MTRBKB
METAR KBKB 010554Z AUTO VRB03KT 10SM SCT085 OVC110 12/04 A3024 RMK
AO2 SLP271 T01220039 10139 20122 401670006 58006





000
SAUS44 KSHV 010457
MTRAQV
METAR KAQV 010456Z AUTO 07003KT 10SM FEW041 BKN070 OVC120 10/04
A3026 RMK AO2 SLP249 T01000039





000
SAUS44 KSHV 010457
MTRAQV
METAR KAQV 010456Z AUTO 07003KT 10SM FEW041 BKN070 OVC120 10/04
A3026 RMK AO2 SLP249 T01000039





000
SAUS44 KSHV 010455
MTRBKB
METAR KBKB 010454Z AUTO VRB03KT 10SM BKN070 OVC085 13/03 A3026 RMK
AO2 SLP275 T01280033





000
SAUS44 KSHV 010455
MTRBKB
METAR KBKB 010454Z AUTO VRB03KT 10SM BKN070 OVC085 13/03 A3026 RMK
AO2 SLP275 T01280033





000
SAUS44 KSHV 010357
MTRAQV
METAR KAQV 010356Z AUTO 02003KT 10SM OVC045 11/04 A3028 RMK AO2
SLP254 T01060039





000
SAUS44 KSHV 010357
MTRAQV
METAR KAQV 010356Z AUTO 02003KT 10SM OVC045 11/04 A3028 RMK AO2
SLP254 T01060039





000
SAUS44 KSHV 010355
MTRBKB
METAR KBKB 010354Z AUTO 00000KT 10SM BKN080 OVC110 13/03 A3027 RMK
AO2 SLP279 T01280033





000
SAUS44 KSHV 010257
MTRAQV
METAR KAQV 010256Z AUTO 00000KT 10SM FEW050 OVC070 10/03 A3027 RMK
AO2 SLP251 T01000033 53001





000
SAUS44 KSHV 010257
MTRAQV
METAR KAQV 010256Z AUTO 00000KT 10SM FEW050 OVC070 10/03 A3027 RMK
AO2 SLP251 T01000033 53001





000
SAUS44 KSHV 010255
MTRBKB
METAR KBKB 010254Z AUTO 00000KT 10SM OVC110 12/03 A3026 RMK AO2
SLP278 T01220033 53005





000
SAUS44 KSHV 010255
MTRBKB
METAR KBKB 010254Z AUTO 00000KT 10SM OVC110 12/03 A3026 RMK AO2
SLP278 T01220033 53005





000
SAUS44 KSHV 010157
MTRAQV
METAR KAQV 010156Z AUTO 00000KT 10SM OVC075 10/03 A3025 RMK AO2
SLP247 T01000033





000
SAUS44 KSHV 010157
MTRAQV
METAR KAQV 010156Z AUTO 00000KT 10SM OVC075 10/03 A3025 RMK AO2
SLP247 T01000033





000
SAUS44 KSHV 010155
MTRBKB
METAR KBKB 010154Z AUTO VRB04KT 10SM OVC100 12/04 A3025 RMK AO2
SLP273 T01220039





000
SAUS44 KSHV 010155
MTRBKB
METAR KBKB 010154Z AUTO VRB04KT 10SM OVC100 12/04 A3025 RMK AO2
SLP273 T01220039





000
SAUS44 KSHV 010057
MTRAQV
METAR KAQV 010056Z AUTO 00000KT 10SM OVC100 09/03 A3026 RMK AO2
SLP249 T00940033





000
SAUS44 KSHV 010057
MTRAQV
METAR KAQV 010056Z AUTO 00000KT 10SM OVC100 09/03 A3026 RMK AO2
SLP249 T00940033





000
SAUS44 KSHV 010055
MTRBKB
METAR KBKB 010054Z AUTO VRB03KT 7SM OVC100 13/04 A3025 RMK AO2
SLP273 T01280044





000
SAUS44 KSHV 010055
MTRBKB
METAR KBKB 010054Z AUTO VRB03KT 7SM OVC100 13/04 A3025 RMK AO2
SLP273 T01280044





000
SAUS44 KSHV 282357
MTRAQV
METAR KAQV 282356Z AUTO 03003KT 10SM OVC095 11/03 A3026 RMK AO2
SLP251 T01060028 10122 20083 58002





000
SAUS44 KSHV 282357
MTRAQV
METAR KAQV 282356Z AUTO 03003KT 10SM OVC095 11/03 A3026 RMK AO2
SLP251 T01060028 10122 20083 58002





000
SAUS44 KSHV 282355
MTRBKB
METAR KBKB 282354Z AUTO 00000KT 10SM OVC090 13/06 A3025 RMK AO2
SLP273 T01330056 10167 20128 58003





000
SAUS44 KSHV 282355
MTRBKB
METAR KBKB 282354Z AUTO 00000KT 10SM OVC090 13/06 A3025 RMK AO2
SLP273 T01330056 10167 20128 58003





000
SAUS44 KSHV 282257
MTRAQV
METAR KAQV 282256Z AUTO 00000KT 10SM OVC060 11/03 A3028 RMK AO2
SLP256 T01110028





000
SAUS44 KSHV 282257
MTRAQV
METAR KAQV 282256Z AUTO 00000KT 10SM OVC060 11/03 A3028 RMK AO2
SLP256 T01110028





000
SAUS44 KSHV 282255
MTRBKB
METAR KBKB 282254Z AUTO 00000KT 10SM BKN060 OVC080 14/06 A3026 RMK
AO2 SLP277 T01440056





000
SAUS44 KSHV 282255
MTRBKB
METAR KBKB 282254Z AUTO 00000KT 10SM BKN060 OVC080 14/06 A3026 RMK
AO2 SLP277 T01440056





000
SAUS44 KSHV 282158
MTRAQV
METAR KAQV 282156Z AUTO VRB03KT 10SM OVC055 12/02 A3028 RMK AO2
SLP255 T01220022





000
SAUS44 KSHV 282155
MTRBKB
METAR KBKB 282154Z AUTO 00000KT 10SM OVC060 16/04 A3026 RMK AO2
SLP276 T01610044





000
SAUS44 KSHV 282057
MTRAQV
METAR KAQV 282056Z AUTO VRB03KT 10SM OVC065 12/02 A3027 RMK AO2
SLP253 T01220017 56023





000
SAUS44 KSHV 282057
MTRAQV
METAR KAQV 282056Z AUTO VRB03KT 10SM OVC065 12/02 A3027 RMK AO2
SLP253 T01220017 56023





000
SAUS44 KSHV 282055
MTRBKB
METAR KBKB 282054Z AUTO 00000KT 10SM OVC065 16/03 A3026 RMK AO2
SLP276 T01560033 56024





000
SAUS44 KSHV 282055
MTRBKB
METAR KBKB 282054Z AUTO 00000KT 10SM OVC065 16/03 A3026 RMK AO2
SLP276 T01560033 56024





000
SAUS44 KSHV 281957
MTRAQV
METAR KAQV 281956Z AUTO 00000KT 10SM BKN065 OVC080 11/01 A3029 RMK
AO2 SLP260 T01110011





000
SAUS44 KSHV 281956
MTRBKB
METAR KBKB 281954Z AUTO 10SM BKN065 OVC100 17/03 A3027 RMK AO2
SLP280 T01670033





000
SAUS44 KSHV 281956
MTRBKB
METAR KBKB 281954Z AUTO 10SM BKN065 OVC100 17/03 A3027 RMK AO2
SLP280 T01670033





000
SAUS44 KSHV 281857
MTRAQV
METAR KAQV 281856Z AUTO VRB05KT 10SM OVC095 11/00 A3031 RMK AO2
SLP267 T01110000





000
SAUS44 KSHV 281857
MTRAQV
METAR KAQV 281856Z AUTO VRB05KT 10SM OVC095 11/00 A3031 RMK AO2
SLP267 T01110000





000
SAUS44 KSHV 281856
MTRBKB
METAR KBKB 281854Z AUTO VRB03KT 10SM OVC100 15/01 A3029 RMK AO2
SLP288 T01500011





000
SAUS44 KSHV 281856
MTRBKB
METAR KBKB 281854Z AUTO VRB03KT 10SM OVC100 15/01 A3029 RMK AO2
SLP288 T01500011





000
SAUS44 KSHV 281757
MTRAQV
METAR KAQV 281756Z AUTO VRB03KT 10SM OVC060 08/M01 A3034 RMK AO2
SLP277 T00831011 10083 20011 57016





000
SAUS44 KSHV 281757
MTRAQV
METAR KAQV 281756Z AUTO VRB03KT 10SM OVC060 08/M01 A3034 RMK AO2
SLP277 T00831011 10083 20011 57016





000
SAUS44 KSHV 281756
MTRBKB
METAR KBKB 281754Z AUTO VRB03KT 10SM OVC065 12/M01 A3033 RMK AO2
SLP300 T01221006 10122 20028 58016





000
SAUS44 KSHV 281756
MTRBKB
METAR KBKB 281754Z AUTO VRB03KT 10SM OVC065 12/M01 A3033 RMK AO2
SLP300 T01221006 10122 20028 58016





000
SAUS44 KSHV 281658
MTRAQV
METAR KAQV 281656Z AUTO 08006KT 10SM OVC060 06/M02 A3036 RMK AO2
SLP285 T00611022





000
SAUS44 KSHV 281658
MTRAQV
METAR KAQV 281656Z AUTO 08006KT 10SM OVC060 06/M02 A3036 RMK AO2
SLP285 T00611022





000
SAUS44 KSHV 281656
MTRBKB
METAR KBKB 281654Z AUTO VRB04KT 10SM OVC060 09/M02 A3035 RMK AO2
SLP310 T00941017





000
SAUS44 KSHV 281656
MTRBKB
METAR KBKB 281654Z AUTO VRB04KT 10SM OVC060 09/M02 A3035 RMK AO2
SLP310 T00941017





000
SAUS44 KSHV 281558
MTRAQV
METAR KAQV 281556Z AUTO 10SM OVC070 05/M03 A3037 RMK AO2 SLP285
T00501028





000
SAUS44 KSHV 281555
MTRBKB
METAR KBKB 281554Z AUTO 07007KT 040V130 10SM OVC065 07/M03 A3036 RMK
AO2 SLP312 T00671028





000
SAUS44 KSHV 281457
MTRAQV
METAR KAQV 281456Z AUTO 07005KT 10SM BKN080 OVC100 03/M03 A3039 RMK
AO2 SLP294 T00331028 53006





000
SAUS44 KSHV 281455
MTRBKB
METAR KBKB 281454Z AUTO 03004KT 10SM OVC065 05/M03 A3038 RMK AO2
SLP318 T00501033 53007





000
SAUS44 KSHV 281357
MTRAQV
METAR KAQV 281356Z AUTO 04005KT 10SM OVC080 02/M03 A3037 RMK AO2
SLP288 T00221033





000
SAUS44 KSHV 281357
MTRAQV
METAR KAQV 281356Z AUTO 04005KT 10SM OVC080 02/M03 A3037 RMK AO2
SLP288 T00221033





000
SAUS44 KSHV 281355
MTRBKB
METAR KBKB 281354Z AUTO VRB04KT 10SM OVC075 04/M04 A3036 RMK AO2
SLP312 T00391039





000
SAUS44 KSHV 281355
MTRBKB
METAR KBKB 281354Z AUTO VRB04KT 10SM OVC075 04/M04 A3036 RMK AO2
SLP312 T00391039





000
SAUS44 KSHV 281257
MTRAQV
METAR KAQV 281256Z AUTO VRB04KT 10SM OVC090 01/M04 A3036 RMK AO2
SLP286 T00111039





000
SAUS44 KSHV 281257
MTRAQV
METAR KAQV 281256Z AUTO VRB04KT 10SM OVC090 01/M04 A3036 RMK AO2
SLP286 T00111039





000
SAUS44 KSHV 281256
MTRBKB
METAR KBKB 281254Z AUTO VRB04KT 10SM OVC080 03/M04 A3036 RMK AO2
SLP311 T00331039





000
SAUS44 KSHV 281256
MTRBKB
METAR KBKB 281254Z AUTO VRB04KT 10SM OVC080 03/M04 A3036 RMK AO2
SLP311 T00331039





000
SAUS44 KSHV 281157
MTRAQV
METAR KAQV 281156Z AUTO VRB05KT 10SM OVC100 01/M04 A3037 RMK AO2
SLP287 7//// T00111039 10011 20000 53005





000
SAUS44 KSHV 281157
MTRAQV
METAR KAQV 281156Z AUTO VRB05KT 10SM OVC100 01/M04 A3037 RMK AO2
SLP287 7//// T00111039 10011 20000 53005





000
SAUS44 KSHV 281155
MTRBKB
METAR KBKB 281154Z AUTO VRB03KT 10SM OVC100 03/M04 A3035 RMK AO2
SLP310 T00281039 10028 20006 53006





000
SAUS44 KSHV 281155
MTRBKB
METAR KBKB 281154Z AUTO VRB03KT 10SM OVC100 03/M04 A3035 RMK AO2
SLP310 T00281039 10028 20006 53006





000
SAUS44 KSHV 281057
MTRAQV
METAR KAQV 281056Z AUTO VRB04KT 10SM OVC095 01/M04 A3036 RMK AO2
SLP283 T00061039





000
SAUS44 KSHV 281057
MTRAQV
METAR KAQV 281056Z AUTO VRB04KT 10SM OVC095 01/M04 A3036 RMK AO2
SLP283 T00061039





000
SAUS44 KSHV 281056
MTRBKB
METAR KBKB 281054Z AUTO VRB04KT 10SM OVC095 03/M04 A3035 RMK AO2
SLP308 T00281039





000
SAUS44 KSHV 281056
MTRBKB
METAR KBKB 281054Z AUTO VRB04KT 10SM OVC095 03/M04 A3035 RMK AO2
SLP308 T00281039





000
SAUS44 KSHV 280958
MTRAQV
METAR KAQV 280956Z AUTO VRB06KT 10SM BKN090 01/M04 A3034 RMK AO2
SLP278 T00061039





000
SAUS44 KSHV 280958
MTRAQV
METAR KAQV 280956Z AUTO VRB06KT 10SM BKN090 01/M04 A3034 RMK AO2
SLP278 T00061039





000
SAUS44 KSHV 280955
MTRBKB
METAR KBKB 280954Z AUTO VRB04KT 10SM OVC090 02/M04 A3033 RMK AO2
SLP302 T00221039





000
SAUS44 KSHV 280857
MTRAQV
METAR KAQV 280856Z AUTO VRB05KT 10SM CLR 00/M04 A3036 RMK AO2 SLP282
T00001039 58018





000
SAUS44 KSHV 280856
MTRBKB
METAR KBKB 280854Z AUTO VRB04KT 10SM CLR 01/M04 A3034 RMK AO2 SLP304
T00061039 58023





000
SAUS44 KSHV 280757
MTRAQV
METAR KAQV 280756Z AUTO VRB03KT 10SM BKN100 01/M04 A3037 RMK AO2
SLP287 T00061039





000
SAUS44 KSHV 280756
MTRBKB
METAR KBKB 280754Z AUTO VRB04KT 10SM CLR 01/M04 A3036 RMK AO2 SLP313
T00111039





000
SAUS44 KSHV 280657
MTRAQV
METAR KAQV 280656Z AUTO VRB04KT 10SM SCT100 BKN120 01/M04 A3040 RMK
AO2 SLP296 T00061039





000
SAUS44 KSHV 280657
MTRAQV
METAR KAQV 280656Z AUTO VRB04KT 10SM SCT100 BKN120 01/M04 A3040 RMK
AO2 SLP296 T00061039





000
SAUS44 KSHV 280656
MTRBKB
METAR KBKB 280654Z AUTO VRB04KT 10SM BKN095 OVC120 01/M04 A3040 RMK
AO2 SLP325 T00111039





000
SAUS44 KSHV 280656
MTRBKB
METAR KBKB 280654Z AUTO VRB04KT 10SM BKN095 OVC120 01/M04 A3040 RMK
AO2 SLP325 T00111039





000
SAUS44 KSHV 280557
MTRAQV
METAR KAQV 280556Z AUTO 06004KT 10SM SCT100 01/M04 A3041 RMK AO2
SLP300 T00061039 10056 20006 400891011 58009





000
SAUS44 KSHV 280557
MTRAQV
METAR KAQV 280556Z AUTO 06004KT 10SM SCT100 01/M04 A3041 RMK AO2
SLP300 T00061039 10056 20006 400891011 58009





000
SAUS44 KSHV 280555
MTRBKB
METAR KBKB 280554Z AUTO 00000KT 10SM FEW100 01/M04 A3040 RMK AO2
SLP327 T00111039 10072 20011 401110000 58008





000
SAUS44 KSHV 280555
MTRBKB
METAR KBKB 280554Z AUTO 00000KT 10SM FEW100 01/M04 A3040 RMK AO2
SLP327 T00111039 10072 20011 401110000 58008





000
SAUS44 KSHV 280457
MTRAQV
METAR KAQV 280456Z AUTO 07003KT 10SM OVC110 01/M04 A3043 RMK AO2
SLP308 T00111044





000
SAUS44 KSHV 280457
MTRAQV
METAR KAQV 280456Z AUTO 07003KT 10SM OVC110 01/M04 A3043 RMK AO2
SLP308 T00111044





000
SAUS44 KSHV 280455
MTRBKB
METAR KBKB 280454Z AUTO VRB03KT 10SM FEW100 02/M04 A3042 RMK AO2
SLP334 T00171039





000
SAUS44 KSHV 280455
MTRBKB
METAR KBKB 280454Z AUTO VRB03KT 10SM FEW100 02/M04 A3042 RMK AO2
SLP334 T00171039





000
SAUS44 KSHV 280357
MTRAQV
METAR KAQV 280356Z AUTO VRB03KT 10SM OVC100 02/M04 A3044 RMK AO2
SLP312 T00221044





000
SAUS44 KSHV 280357
MTRAQV
METAR KAQV 280356Z AUTO VRB03KT 10SM OVC100 02/M04 A3044 RMK AO2
SLP312 T00221044





000
SAUS44 KSHV 280355
MTRBKB
METAR KBKB 280354Z AUTO 04004KT 10SM OVC100 02/M04 A3044 RMK AO2
SLP340 T00221039





000
SAUS44 KSHV 280355
MTRBKB
METAR KBKB 280354Z AUTO 04004KT 10SM OVC100 02/M04 A3044 RMK AO2
SLP340 T00221039





000
SAUS44 KSHV 280257
MTRAQV
METAR KAQV 280256Z AUTO 02005KT 10SM OVC095 02/M05 A3044 RMK AO2
SLP310 T00221050 53024





000
SAUS44 KSHV 280257
MTRAQV
METAR KAQV 280256Z AUTO 02005KT 10SM OVC095 02/M05 A3044 RMK AO2
SLP310 T00221050 53024





000
SAUS44 KSHV 280256
MTRBKB
METAR KBKB 280254Z AUTO VRB06KT 10SM BKN100 03/M04 A3043 RMK AO2
SLP337 T00281039 53029





000
SAUS44 KSHV 280256
MTRBKB
METAR KBKB 280254Z AUTO VRB06KT 10SM BKN100 03/M04 A3043 RMK AO2
SLP337 T00281039 53029





000
SAUS44 KSHV 280157
MTRAQV
METAR KAQV 280156Z AUTO 04009G17KT 10SM OVC100 03/M05 A3041 RMK AO2
SLP302 T00281050





000
SAUS44 KSHV 280157
MTRAQV
METAR KAQV 280156Z AUTO 04009G17KT 10SM OVC100 03/M05 A3041 RMK AO2
SLP302 T00281050





000
SAUS44 KSHV 280155
MTRBKB
METAR KBKB 280154Z AUTO 02006KT 10SM CLR 04/M04 A3039 RMK AO2 SLP324
T00391039





000
SAUS44 KSHV 280155
MTRBKB
METAR KBKB 280154Z AUTO 02006KT 10SM CLR 04/M04 A3039 RMK AO2 SLP324
T00391039





000
SAUS44 KSHV 280057 COR
MTRBKB
METAR KBKB 280054Z AUTO VRB04KT 10SM CLR 05/M03 A3037 RMK AO2 SLP315
T00501033





000
SAUS44 KSHV 280057
MTRAQV
METAR KAQV 280056Z AUTO 04008G16KT 10SM OVC100 03/M04 A3039 RMK AO2
SLP293 T00331039





000
SAUS44 KSHV 280057 COR
MTRBKB
METAR KBKB 280054Z AUTO VRB04KT 10SM CLR 05/M03 A3037 RMK AO2 SLP315
T00501033





000
SAUS44 KSHV 280057
MTRAQV
METAR KAQV 280056Z AUTO 04008G16KT 10SM OVC100 03/M04 A3039 RMK AO2
SLP293 T00331039





000
SAUS44 KSHV 272357
MTRAQV
METAR KAQV 272356Z AUTO 01008KT 10SM OVC100 06/M04 A3037 RMK AO2
SLP286 6//// T00561039 10089 20056 53010





000
SAUS44 KSHV 272357
MTRAQV
METAR KAQV 272356Z AUTO 01008KT 10SM OVC100 06/M04 A3037 RMK AO2
SLP286 6//// T00561039 10089 20056 53010





000
SAUS44 KSHV 272356
MTRBKB
METAR KBKB 272354Z AUTO VRB05KT 10SM CLR 07/M03 A3034 RMK AO2 SLP307
T00721028 10111 20072 53007





000
SAUS44 KSHV 272356
MTRBKB
METAR KBKB 272354Z AUTO VRB05KT 10SM CLR 07/M03 A3034 RMK AO2 SLP307
T00721028 10111 20072 53007





000
SAUS44 KSHV 272257
MTRAQV
METAR KAQV 272256Z AUTO 02005KT 10SM OVC110 06/M03 A3035 RMK AO2
SLP279 T00611028





000
SAUS44 KSHV 272257
MTRAQV
METAR KAQV 272256Z AUTO 02005KT 10SM OVC110 06/M03 A3035 RMK AO2
SLP279 T00611028





000
SAUS44 KSHV 272256
MTRBKB
METAR KBKB 272254Z AUTO VRB04KT 10SM SCT100 09/M03 A3032 RMK AO2
SLP299 T00941028





000
SAUS44 KSHV 272256
MTRBKB
METAR KBKB 272254Z AUTO VRB04KT 10SM SCT100 09/M03 A3032 RMK AO2
SLP299 T00941028





000
SAUS44 KSHV 272157
MTRAQV
METAR KAQV 272156Z AUTO 04008KT 10SM OVC100 07/M03 A3034 RMK AO2
SLP277 T00721033





000
SAUS44 KSHV 272157
MTRAQV
METAR KAQV 272156Z AUTO 04008KT 10SM OVC100 07/M03 A3034 RMK AO2
SLP277 T00721033





000
SAUS44 KSHV 272156
MTRBKB
METAR KBKB 272154Z AUTO VRB06KT 10SM FEW120 11/M03 A3032 RMK AO2
SLP298 T01061028





000
SAUS44 KSHV 272156
MTRBKB
METAR KBKB 272154Z AUTO VRB06KT 10SM FEW120 11/M03 A3032 RMK AO2
SLP298 T01061028





000
SAUS44 KSHV 272057
MTRAQV
METAR KAQV 272056Z AUTO 03005G14KT 10SM CLR 08/M03 A3034 RMK AO2
SLP275 6//// T00781028 57019





000
SAUS44 KSHV 272057
MTRAQV
METAR KAQV 272056Z AUTO 03005G14KT 10SM CLR 08/M03 A3034 RMK AO2
SLP275 6//// T00781028 57019





000
SAUS44 KSHV 272055
MTRBKB
METAR KBKB 272054Z AUTO VRB04KT 10SM CLR 11/M03 A3032 RMK AO2 SLP298
T01061028 56019





000
SAUS44 KSHV 272055
MTRBKB
METAR KBKB 272054Z AUTO VRB04KT 10SM CLR 11/M03 A3032 RMK AO2 SLP298
T01061028 56019





000
SAUS44 KSHV 271957
MTRAQV
METAR KAQV 271956Z AUTO VRB04KT 10SM CLR 08/M03 A3035 RMK AO2 SLP281
T00831033





000
SAUS44 KSHV 271957
MTRAQV
METAR KAQV 271956Z AUTO VRB04KT 10SM CLR 08/M03 A3035 RMK AO2 SLP281
T00831033





000
SAUS44 KSHV 271955
MTRBKB
METAR KBKB 271954Z AUTO VRB03KT 10SM CLR 10/M03 A3033 RMK AO2 SLP302
T01001028





000
SAUS44 KSHV 271857
MTRAQV
METAR KAQV 271856Z AUTO 05007KT 10SM CLR 08/M03 A3038 RMK AO2 SLP289
T00781033 PNO $





000
SAUS44 KSHV 271857
MTRAQV
METAR KAQV 271856Z AUTO 05007KT 10SM CLR 08/M03 A3038 RMK AO2 SLP289
T00781033 PNO $





000
SAUS44 KSHV 271856
MTRBKB
METAR KBKB 271854Z AUTO VRB04KT 10SM CLR 09/M03 A3036 RMK AO2 SLP312
T00891033





000
SAUS44 KSHV 271856
MTRBKB
METAR KBKB 271854Z AUTO VRB04KT 10SM CLR 09/M03 A3036 RMK AO2 SLP312
T00891033





000
SAUS44 KSHV 271757
MTRAQV
METAR KAQV 271756Z AUTO 00000KT 10SM CLR 06/M03 A3039 RMK AO2 SLP295
6//// T00611033 10061 21011 58012 PNO $





000
SAUS44 KSHV 271757
MTRAQV
METAR KAQV 271756Z AUTO 00000KT 10SM CLR 06/M03 A3039 RMK AO2 SLP295
6//// T00611033 10061 21011 58012 PNO $





000
SAUS44 KSHV 271755
MTRBKB
METAR KBKB 271754Z AUTO 05007KT 10SM CLR 08/M03 A3038 RMK AO2 SLP318
T00831033 10083 20000 58013





000
SAUS44 KSHV 271755
MTRBKB
METAR KBKB 271754Z AUTO 05007KT 10SM CLR 08/M03 A3038 RMK AO2 SLP318
T00831033 10083 20000 58013





000
SAUS44 KSHV 271657
MTRAQV
METAR KAQV 271656Z AUTO 07008G16KT 040V100 10SM FEW085 04/M04 A3042
RMK AO2 SLP304 T00391039 PNO $





000
SAUS44 KSHV 271657
MTRAQV
METAR KAQV 271656Z AUTO 07008G16KT 040V100 10SM FEW085 04/M04 A3042
RMK AO2 SLP304 T00391039 PNO $





000
SAUS44 KSHV 271655
MTRBKB
METAR KBKB 271654Z AUTO 07006KT 10SM CLR 06/M03 A3041 RMK AO2 SLP328
T00561033





000
SAUS44 KSHV 271655
MTRBKB
METAR KBKB 271654Z AUTO 07006KT 10SM CLR 06/M03 A3041 RMK AO2 SLP328
T00561033





000
SAUS44 KSHV 271614
MTRBKB
SPECI KBKB 271613Z AUTO VRB05KT 10SM SCT019 04/M03 A3042 RMK AO2
T00441033





000
SAUS44 KSHV 271614
MTRBKB
SPECI KBKB 271613Z AUTO VRB05KT 10SM SCT019 04/M03 A3042 RMK AO2
T00441033





000
SAUS44 KSHV 271608
MTRAQV
SPECI KAQV 271607Z AUTO VRB03KT 10SM SCT022 03/M04 A3043 RMK AO2
T00281044 PNO $





000
SAUS44 KSHV 271557
MTRAQV
METAR KAQV 271556Z AUTO 03010G15KT 10SM BKN021 02/M04 A3043 RMK AO2
SLP306 T00221044 PNO $





000
SAUS44 KSHV 271556
MTRBKB
METAR KBKB 271554Z AUTO VRB04KT 10SM BKN019 03/M04 A3042 RMK AO2
SLP334 T00281039





000
SAUS44 KSHV 271556
MTRBKB
METAR KBKB 271554Z AUTO VRB04KT 10SM BKN019 03/M04 A3042 RMK AO2
SLP334 T00281039





000
SAUS44 KSHV 271544
MTRAQV
SPECI KAQV 271543Z AUTO 04007KT 360V070 10SM BKN021 02/M04 A3043 RMK
AO2 T00221044 PNO $





000
SAUS44 KSHV 271528
MTRAQV
SPECI KAQV 271527Z AUTO VRB06G17KT 10SM SCT018 01/M05 A3043 RMK AO2
T00061050 PNO $





000
SAUS44 KSHV 271528
MTRAQV
SPECI KAQV 271527Z AUTO VRB06G17KT 10SM SCT018 01/M05 A3043 RMK AO2
T00061050 PNO $





000
SAUS44 KSHV 271457
MTRAQV
METAR KAQV 271456Z AUTO 06007KT 030V100 10SM BKN016 00/M04 A3043 RMK
AO2 SLP308 6//// T00001044 53017 PNO $





000
SAUS44 KSHV 271457
MTRAQV
METAR KAQV 271456Z AUTO 06007KT 030V100 10SM BKN016 00/M04 A3043 RMK
AO2 SLP308 6//// T00001044 53017 PNO $





000
SAUS44 KSHV 271456
MTRBKB
METAR KBKB 271454Z AUTO VRB05KT 10SM OVC016 02/M04 A3042 RMK AO2
SLP332 T00171044 53021





000
SAUS44 KSHV 271456
MTRBKB
METAR KBKB 271454Z AUTO VRB05KT 10SM OVC016 02/M04 A3042 RMK AO2
SLP332 T00171044 53021





000
SAUS44 KSHV 271357
MTRAQV
METAR KAQV 271356Z AUTO 04005KT 10SM OVC015 M01/M04 A3042 RMK AO2
SLP304 T10061044 PNO $





000
SAUS44 KSHV 271357
MTRAQV
METAR KAQV 271356Z AUTO 04005KT 10SM OVC015 M01/M04 A3042 RMK AO2
SLP304 T10061044 PNO $





000
SAUS44 KSHV 271356
MTRBKB
METAR KBKB 271354Z AUTO 04007KT 320V080 10SM OVC016 01/M05 A3040 RMK
AO2 SLP328 T00061050





000
SAUS44 KSHV 271356
MTRBKB
METAR KBKB 271354Z AUTO 04007KT 320V080 10SM OVC016 01/M05 A3040 RMK
AO2 SLP328 T00061050





000
SAUS44 KSHV 271324
MTRAQV
SPECI KAQV 271323Z AUTO VRB05KT 10SM OVC015 M01/M04 A3041 RMK AO2
T10111044 PNO $





000
SAUS44 KSHV 271324
MTRAQV
SPECI KAQV 271323Z AUTO VRB05KT 10SM OVC015 M01/M04 A3041 RMK AO2
T10111044 PNO $





000
SAUS44 KSHV 271257
MTRAQV
METAR KAQV 271256Z AUTO VRB06KT 10SM OVC014 M01/M04 A3038 RMK AO2
SLP293 T10111044 PNO $





000
SAUS44 KSHV 271255
MTRBKB
METAR KBKB 271254Z AUTO VRB04KT 10SM BKN017 00/M05 A3037 RMK AO2
SLP314 T00001050





000
SAUS44 KSHV 271231
MTRBKB
SPECI KBKB 271230Z AUTO 03007KT 350V060 10SM OVC016 01/M04 A3036 RMK
AO2 T00061039





000
SAUS44 KSHV 271210
MTRBKB
SPECI KBKB 271208Z AUTO 10SM OVC014 01/M03 A3036 RMK AO2 T00111033





000
SAUS44 KSHV 271157
MTRAQV
METAR KAQV 271156Z AUTO 04008KT 010V080 10SM OVC013 M01/M04 A3038
RMK AO2 SLP290 6//// 7//// T10061039 10033 21006 53012 PNO $





000
SAUS44 KSHV 271155
MTRBKB
METAR KBKB 271154Z AUTO VRB06KT 10SM OVC015 01/M03 A3036 RMK AO2
SLP311 T00111033 10044 20011 53002





000
SAUS44 KSHV 271118
MTRAQV
SPECI KAQV 271117Z AUTO 04006KT 10SM BKN013 M01/M03 A3035 RMK AO2
T10061033 PNO $





000
SAUS44 KSHV 271057
MTRAQV
METAR KAQV 271056Z AUTO 03007G15KT 360V070 10SM FEW013 M01/M03 A3035
RMK AO2 SLP280 T10061033 PNO $





000
SAUS44 KSHV 271055
MTRBKB
METAR KBKB 271054Z AUTO VRB03KT 10SM FEW011 BKN019 02/M02 A3033 RMK
AO2 SLP302 T00171022





000
SAUS44 KSHV 271029
MTRBKB
SPECI KBKB 271028Z AUTO VRB05KT 10SM FEW011 SCT020 02/M02 A3034 RMK
AO2 T00171022





000
SAUS44 KSHV 271009
MTRBKB
SPECI KBKB 271007Z AUTO VRB05KT 10SM SCT020 02/M02 A3035 RMK AO2
T00171022





000
SAUS44 KSHV 270957
MTRAQV
METAR KAQV 270956Z AUTO 02008KT 10SM FEW016 00/M03 A3037 RMK AO2
SLP287 T00001028 PNO $





000
SAUS44 KSHV 270955
MTRBKB
METAR KBKB 270954Z AUTO VRB04KT 10SM BKN022 02/M03 A3035 RMK AO2
SLP309 T00171028





000
SAUS44 KSHV 270914
MTRAQV
SPECI KAQV 270913Z AUTO VRB05KT 10SM SCT016 01/M02 A3035 RMK AO2
T00061022 TSNO PNO $





000
SAUS44 KSHV 270908 COR
MTRBKB
SPECI KBKB 270906Z AUTO VRB03KT 10SM BKN021 02/M03 A3032 RMK AO2
T00221028





000
SAUS44 KSHV 270857
MTRAQV
METAR KAQV 270856Z AUTO VRB04KT 10SM BKN018 01/M02 A3034 RMK AO2
SLP278 6//// T00111022 53003 TSNO PNO $





000
SAUS44 KSHV 270855
MTRBKB
METAR KBKB 270854Z AUTO VRB04KT 10SM SCT021 02/M03 A3032 RMK AO2
SLP299 T00221028 56001





000
SAUS44 KSHV 270853
MTRBKB
SPECI KBKB 270852Z AUTO VRB05KT 10SM SCT021 02/M03 A3033 RMK AO2





000
SAUS44 KSHV 270829
MTRAQV
SPECI KAQV 270828Z AUTO 02006KT 10SM BKN016 01/M02 A3033 RMK AO2
T00111017 PNO





000
SAUS44 KSHV 270817
MTRBKB
SPECI KBKB 270815Z AUTO VRB03KT 10SM BKN021 03/M02 A3032 RMK AO2
T00331022





000
SAUS44 KSHV 270757
MTRAQV
METAR KAQV 270756Z AUTO 02005KT 10SM CLR 02/M02 A3033 RMK AO2 SLP274
T00171017 PNO





000
SAUS44 KSHV 270756
MTRBKB
METAR KBKB 270754Z AUTO 04006KT 10SM SCT023 03/M03 A3031 RMK AO2
SLP295 T00331028





000
SAUS44 KSHV 270728 COR
MTRBKB
SPECI KBKB 270724Z AUTO VRB06KT 10SM BKN016 OVC021 04/M01 A3030 RMK
AO2 T00391011





000
SAUS44 KSHV 270726 COR
MTRBKB
SPECI KBKB 270724Z AUTO VRB06KT 10SM BKN016 OVC021 04/M01 A3030 RMK
AO2 T00391011





000
SAUS44 KSHV 270713
MTRBKB
SPECI KBKB 270712Z AUTO VRB04KT 10SM OVC014 04/M01 A3031 RMK AO2
T00391006





000
SAUS44 KSHV 270713
MTRBKB
SPECI KBKB 270712Z AUTO VRB04KT 10SM OVC014 04/M01 A3031 RMK AO2
T00391006





000
SAUS44 KSHV 270658
MTRAQV
METAR KAQV 270656Z AUTO 05004KT 10SM FEW017 FEW026 02/M01 A3033 RMK
AO2 SLP272 T00221011 PNO





000
SAUS44 KSHV 270656
MTRBKB
METAR KBKB 270654Z AUTO VRB05KT 10SM OVC015 04/M01 A3033 RMK AO2
SLP300 T00391011





000
SAUS44 KSHV 270643
MTRAQV
SPECI KAQV 270642Z AUTO 04007KT 010V080 10SM SCT013 BKN018 03/M01
A3033 RMK AO2 T00281011 PNO





000
SAUS44 KSHV 270557
MTRAQV
METAR KAQV 270556Z AUTO 01008G15KT 9SM OVC014 03/M01 A3034 RMK AO2
SLP275 6//// T00331006 10056 20033 401220017 50014 PNO





000
SAUS44 KSHV 270557 COR
MTRBKB
METAR KBKB 270554Z AUTO 03007KT 340V050 10SM OVC016 04/M01 A3032 RMK
AO2 SLP297 T00441006 10078 20044 401330022 50011





000
SAUS44 KSHV 270556 COR
MTRBKB
METAR KBKB 270554Z AUTO 03007KT 340V050 10SM OVC016 04/M01 A3032 RMK
AO2 SLP297 T00441006 10078 20044 401330022 50011





    US Dept of Commerce
    National Oceanic and Atmospheric Administration
    National Weather Service
    1325 East West Highway
    Silver Spring, MD 20910
    Page Author: NWS Internet Services Team
Disclaimer
Information Quality
Credits
Glossary
Privacy Policy
Freedom of Information Act (FOIA)
About Us
Career Opportunities